sensor_id;sensor_type;location;lat;lon;timestamp;temperature;humidity
76203;DHT22;64985;46.364;17.008;2023-06-14T00:02:34;10.30;99.90
76203;DHT22;64985;46.364;17.008;2023-06-14T00:05:37;10.30;99.90
76203;DHT22;64985;46.364;17.008;2023-06-14T00:08:44;10.30;99.90
76203;DHT22;64985;46.364;17.008;2023-06-14T00:11:47;10.40;99.90
76203;DHT22;64985;46.364;17.008;2023-06-14T00:14:49;10.40;99.90
76203;DHT22;64985;46.364;17.008;2023-06-14T00:17:51;10.30;99.90
76203;DHT22;64985;46.364;17.008;2023-06-14T00:20:54;10.30;99.90
76203;DHT22;64985;46.364;17.008;2023-06-14T00:23:57;10.30;99.90
76203;DHT22;64985;46.364;17.008;2023-06-14T00:26:59;10.30;99.90
76203;DHT22;64985;46.364;17.008;2023-06-14T00:30:02;10.20;99.90
76203;DHT22;64985;46.364;17.008;2023-06-14T00:33:04;10.20;99.90
76203;DHT22;64985;46.364;17.008;2023-06-14T00:36:06;10.20;99.90
76203;DHT22;64985;46.364;17.008;2023-06-14T00:39:08;10.00;99.90
76203;DHT22;64985;46.364;17.008;2023-06-14T00:42:12;9.90;99.90
76203;DHT22;64985;46.364;17.008;2023-06-14T00:45:24;9.80;99.90
76203;DHT22;64985;46.364;17.008;2023-06-14T00:48:27;9.60;99.90
76203;DHT22;64985;46.364;17.008;2023-06-14T00:51:30;9.60;99.90
76203;DHT22;64985;46.364;17.008;2023-06-14T00:54:32;9.50;99.90
76203;DHT22;64985;46.364;17.008;2023-06-14T00:57:34;9.50;99.90
76203;DHT22;64985;46.364;17.008;2023-06-14T01:00:39;9.60;99.90
76203;DHT22;64985;46.364;17.008;2023-06-14T01:03:41;9.70;99.90
76203;DHT22;64985;46.364;17.008;2023-06-14T01:06:59;9.70;99.90
76203;DHT22;64985;46.364;17.008;2023-06-14T01:10:40;9.60;99.90
76203;DHT22;64985;46.364;17.008;2023-06-14T01:13:48;9.50;99.90
76203;DHT22;64985;46.364;17.008;2023-06-14T01:16:51;9.40;99.90
76203;DHT22;64985;46.364;17.008;2023-06-14T01:19:55;9.40;99.90
76203;DHT22;64985;46.364;17.008;2023-06-14T01:23:00;9.30;99.90
76203;DHT22;64985;46.364;17.008;2023-06-14T01:26:02;9.20;99.90
76203;DHT22;64985;46.364;17.008;2023-06-14T01:29:06;9.20;99.90
76203;DHT22;64985;46.364;17.008;2023-06-14T01:32:09;9.20;99.90
76203;DHT22;64985;46.364;17.008;2023-06-14T01:35:11;9.10;99.90
76203;DHT22;64985;46.364;17.008;2023-06-14T01:38:15;9.20;99.90
76203;DHT22;64985;46.364;17.008;2023-06-14T01:41:18;9.10;99.90
76203;DHT22;64985;46.364;17.008;2023-06-14T01:44:23;9.10;99.90
76203;DHT22;64985;46.364;17.008;2023-06-14T01:47:25;9.00;99.90
76203;DHT22;64985;46.364;17.008;2023-06-14T01:50:31;9.00;99.90
76203;DHT22;64985;46.364;17.008;2023-06-14T01:53:34;9.00;99.90
76203;DHT22;64985;46.364;17.008;2023-06-14T01:56:36;9.00;99.90
76203;DHT22;64985;46.364;17.008;2023-06-14T01:59:38;9.00;99.90
76203;DHT22;64985;46.364;17.008;2023-06-14T02:02:40;8.90;99.90
76203;DHT22;64985;46.364;17.008;2023-06-14T02:05:43;9.00;99.90
76203;DHT22;64985;46.364;17.008;2023-06-14T02:08:45;8.90;99.90
76203;DHT22;64985;46.364;17.008;2023-06-14T02:11:47;8.90;99.90
76203;DHT22;64985;46.364;17.008;2023-06-14T02:14:49;9.00;99.90
76203;DHT22;64985;46.364;17.008;2023-06-14T02:17:51;9.10;99.90
76203;DHT22;64985;46.364;17.008;2023-06-14T02:20:54;9.00;99.90
76203;DHT22;64985;46.364;17.008;2023-06-14T02:23:56;9.00;99.90
76203;DHT22;64985;46.364;17.008;2023-06-14T02:27:00;9.00;99.90
76203;DHT22;64985;46.364;17.008;2023-06-14T02:30:02;9.00;99.90
76203;DHT22;64985;46.364;17.008;2023-06-14T02:33:05;9.00;99.90
76203;DHT22;64985;46.364;17.008;2023-06-14T02:36:07;8.90;99.90
76203;DHT22;64985;46.364;17.008;2023-06-14T02:39:09;8.90;99.90
76203;DHT22;64985;46.364;17.008;2023-06-14T02:42:12;8.80;99.90
76203;DHT22;64985;46.364;17.008;2023-06-14T02:45:14;8.80;99.90
76203;DHT22;64985;46.364;17.008;2023-06-14T02:48:17;8.80;99.90
76203;DHT22;64985;46.364;17.008;2023-06-14T02:51:19;8.90;99.90
76203;DHT22;64985;46.364;17.008;2023-06-14T02:54:21;9.00;99.90
76203;DHT22;64985;46.364;17.008;2023-06-14T02:57:23;9.00;99.90
76203;DHT22;64985;46.364;17.008;2023-06-14T03:00:25;9.00;99.90
76203;DHT22;64985;46.364;17.008;2023-06-14T03:03:28;8.90;99.90
76203;DHT22;64985;46.364;17.008;2023-06-14T03:06:30;8.80;99.90
76203;DHT22;64985;46.364;17.008;2023-06-14T03:09:32;8.70;99.90
76203;DHT22;64985;46.364;17.008;2023-06-14T03:12:35;8.80;99.90
76203;DHT22;64985;46.364;17.008;2023-06-14T03:15:38;8.80;99.90
76203;DHT22;64985;46.364;17.008;2023-06-14T03:18:40;8.70;99.90
76203;DHT22;64985;46.364;17.008;2023-06-14T03:21:42;8.70;99.90
76203;DHT22;64985;46.364;17.008;2023-06-14T03:24:46;8.80;99.90
76203;DHT22;64985;46.364;17.008;2023-06-14T03:27:49;8.80;99.90
76203;DHT22;64985;46.364;17.008;2023-06-14T03:30:51;8.80;99.90
76203;DHT22;64985;46.364;17.008;2023-06-14T03:33:53;8.80;99.90
76203;DHT22;64985;46.364;17.008;2023-06-14T03:36:55;8.80;99.90
76203;DHT22;64985;46.364;17.008;2023-06-14T03:39:57;8.80;99.90
76203;DHT22;64985;46.364;17.008;2023-06-14T03:42:59;8.90;99.90
76203;DHT22;64985;46.364;17.008;2023-06-14T03:46:02;9.00;99.90
76203;DHT22;64985;46.364;17.008;2023-06-14T03:49:04;9.00;99.90
76203;DHT22;64985;46.364;17.008;2023-06-14T03:52:06;9.10;99.90
76203;DHT22;64985;46.364;17.008;2023-06-14T03:55:08;9.20;99.90
76203;DHT22;64985;46.364;17.008;2023-06-14T03:58:13;9.20;99.90
76203;DHT22;64985;46.364;17.008;2023-06-14T04:01:16;9.30;99.90
76203;DHT22;64985;46.364;17.008;2023-06-14T04:04:18;9.40;99.90
76203;DHT22;64985;46.364;17.008;2023-06-14T04:07:21;9.50;99.90
76203;DHT22;64985;46.364;17.008;2023-06-14T04:10:23;9.60;99.90
76203;DHT22;64985;46.364;17.008;2023-06-14T04:13:25;9.80;99.90
76203;DHT22;64985;46.364;17.008;2023-06-14T04:16:27;9.90;99.90
76203;DHT22;64985;46.364;17.008;2023-06-14T04:19:29;10.20;99.90
76203;DHT22;64985;46.364;17.008;2023-06-14T04:22:32;10.40;99.90
76203;DHT22;64985;46.364;17.008;2023-06-14T04:25:35;10.70;99.90
76203;DHT22;64985;46.364;17.008;2023-06-14T04:28:38;11.00;99.90
76203;DHT22;64985;46.364;17.008;2023-06-14T04:31:43;11.20;99.90
76203;DHT22;64985;46.364;17.008;2023-06-14T04:34:46;11.60;99.90
76203;DHT22;64985;46.364;17.008;2023-06-14T04:37:49;11.90;99.90
76203;DHT22;64985;46.364;17.008;2023-06-14T04:40:51;12.20;99.90
76203;DHT22;64985;46.364;17.008;2023-06-14T04:43:54;12.40;99.90
76203;DHT22;64985;46.364;17.008;2023-06-14T04:46:59;12.70;99.90
76203;DHT22;64985;46.364;17.008;2023-06-14T04:50:01;12.80;99.90
76203;DHT22;64985;46.364;17.008;2023-06-14T04:53:05;13.10;99.90
76203;DHT22;64985;46.364;17.008;2023-06-14T04:56:08;13.40;99.90
76203;DHT22;64985;46.364;17.008;2023-06-14T04:59:12;13.50;99.90
76203;DHT22;64985;46.364;17.008;2023-06-14T05:02:14;13.50;99.90
76203;DHT22;64985;46.364;17.008;2023-06-14T05:05:17;13.60;99.90
76203;DHT22;64985;46.364;17.008;2023-06-14T05:08:21;13.60;99.90
76203;DHT22;64985;46.364;17.008;2023-06-14T05:11:25;14.00;99.90
76203;DHT22;64985;46.364;17.008;2023-06-14T05:14:29;14.30;99.90
76203;DHT22;64985;46.364;17.008;2023-06-14T05:17:31;14.60;99.90
76203;DHT22;64985;46.364;17.008;2023-06-14T05:20:33;14.90;99.90
76203;DHT22;64985;46.364;17.008;2023-06-14T05:23:36;15.30;99.90
76203;DHT22;64985;46.364;17.008;2023-06-14T05:26:38;15.70;99.90
76203;DHT22;64985;46.364;17.008;2023-06-14T05:29:40;15.90;99.90
76203;DHT22;64985;46.364;17.008;2023-06-14T05:32:43;16.30;99.90
76203;DHT22;64985;46.364;17.008;2023-06-14T05:35:45;17.00;99.90
76203;DHT22;64985;46.364;17.008;2023-06-14T05:38:48;17.20;99.90
76203;DHT22;64985;46.364;17.008;2023-06-14T05:41:50;17.30;99.90
76203;DHT22;64985;46.364;17.008;2023-06-14T05:44:52;17.60;97.80
76203;DHT22;64985;46.364;17.008;2023-06-14T05:47:55;18.10;96.00
76203;DHT22;64985;46.364;17.008;2023-06-14T05:50:58;18.40;89.00
76203;DHT22;64985;46.364;17.008;2023-06-14T05:54:00;18.40;79.40
76203;DHT22;64985;46.364;17.008;2023-06-14T05:57:02;18.30;79.10
76203;DHT22;64985;46.364;17.008;2023-06-14T06:00:07;18.10;82.00
76203;DHT22;64985;46.364;17.008;2023-06-14T06:03:13;18.10;90.70
76203;DHT22;64985;46.364;17.008;2023-06-14T06:06:15;18.00;85.80
76203;DHT22;64985;46.364;17.008;2023-06-14T06:09:18;17.70;89.90
76203;DHT22;64985;46.364;17.008;2023-06-14T06:12:21;17.80;84.80
76203;DHT22;64985;46.364;17.008;2023-06-14T06:15:23;18.00;94.00
76203;DHT22;64985;46.364;17.008;2023-06-14T06:18:25;18.60;88.80
76203;DHT22;64985;46.364;17.008;2023-06-14T06:21:27;19.10;90.10
76203;DHT22;64985;46.364;17.008;2023-06-14T06:24:29;19.40;76.70
76203;DHT22;64985;46.364;17.008;2023-06-14T06:27:32;19.20;81.20
76203;DHT22;64985;46.364;17.008;2023-06-14T06:30:35;19.00;77.40
76203;DHT22;64985;46.364;17.008;2023-06-14T06:33:38;19.20;83.70
76203;DHT22;64985;46.364;17.008;2023-06-14T06:36:41;19.30;78.00
76203;DHT22;64985;46.364;17.008;2023-06-14T06:39:44;19.30;81.60
76203;DHT22;64985;46.364;17.008;2023-06-14T06:42:46;19.20;84.10
76203;DHT22;64985;46.364;17.008;2023-06-14T06:45:48;19.30;80.80
76203;DHT22;64985;46.364;17.008;2023-06-14T06:48:51;19.30;80.80
76203;DHT22;64985;46.364;17.008;2023-06-14T06:52:04;19.40;77.10
76203;DHT22;64985;46.364;17.008;2023-06-14T06:55:08;19.30;88.80
76203;DHT22;64985;46.364;17.008;2023-06-14T06:58:13;19.30;82.30
76203;DHT22;64985;46.364;17.008;2023-06-14T07:01:16;18.90;89.60
76203;DHT22;64985;46.364;17.008;2023-06-14T07:04:18;18.80;93.60
76203;DHT22;64985;46.364;17.008;2023-06-14T07:07:20;18.70;87.70
76203;DHT22;64985;46.364;17.008;2023-06-14T07:10:23;18.80;91.90
76203;DHT22;64985;46.364;17.008;2023-06-14T07:13:26;18.90;90.00
76203;DHT22;64985;46.364;17.008;2023-06-14T07:16:28;19.00;78.80
76203;DHT22;64985;46.364;17.008;2023-06-14T07:19:31;19.00;77.50
76203;DHT22;64985;46.364;17.008;2023-06-14T07:22:33;19.10;85.40
76203;DHT22;64985;46.364;17.008;2023-06-14T07:25:35;19.20;80.70
76203;DHT22;64985;46.364;17.008;2023-06-14T07:28:38;19.30;80.70
76203;DHT22;64985;46.364;17.008;2023-06-14T07:31:40;19.30;74.10
76203;DHT22;64985;46.364;17.008;2023-06-14T07:34:42;19.10;79.70
76203;DHT22;64985;46.364;17.008;2023-06-14T07:37:44;19.30;77.80
76203;DHT22;64985;46.364;17.008;2023-06-14T07:40:48;19.60;81.10
76203;DHT22;64985;46.364;17.008;2023-06-14T07:43:50;19.70;78.10
76203;DHT22;64985;46.364;17.008;2023-06-14T07:46:52;19.70;78.80
76203;DHT22;64985;46.364;17.008;2023-06-14T07:49:55;19.90;79.20
76203;DHT22;64985;46.364;17.008;2023-06-14T07:52:57;19.70;74.20
76203;DHT22;64985;46.364;17.008;2023-06-14T07:55:59;19.60;76.10
76203;DHT22;64985;46.364;17.008;2023-06-14T07:59:02;19.70;72.10
76203;DHT22;64985;46.364;17.008;2023-06-14T08:02:04;20.10;74.60
76203;DHT22;64985;46.364;17.008;2023-06-14T08:05:06;20.50;69.30
76203;DHT22;64985;46.364;17.008;2023-06-14T08:08:09;20.70;71.20
76203;DHT22;64985;46.364;17.008;2023-06-14T08:11:11;21.20;71.80
76203;DHT22;64985;46.364;17.008;2023-06-14T08:14:13;21.80;71.60
76203;DHT22;64985;46.364;17.008;2023-06-14T08:17:15;22.00;68.80
76203;DHT22;64985;46.364;17.008;2023-06-14T08:20:17;22.20;62.40
76203;DHT22;64985;46.364;17.008;2023-06-14T08:23:20;22.50;68.30
76203;DHT22;64985;46.364;17.008;2023-06-14T08:26:23;23.10;64.10
76203;DHT22;64985;46.364;17.008;2023-06-14T08:29:25;23.80;64.40
76203;DHT22;64985;46.364;17.008;2023-06-14T08:32:31;24.20;61.70
76203;DHT22;64985;46.364;17.008;2023-06-14T08:35:33;25.00;59.50
76203;DHT22;64985;46.364;17.008;2023-06-14T08:38:38;23.90;58.70
76203;DHT22;64985;46.364;17.008;2023-06-14T08:41:40;23.40;57.60
76203;DHT22;64985;46.364;17.008;2023-06-14T08:44:42;23.70;59.10
76203;DHT22;64985;46.364;17.008;2023-06-14T08:47:45;23.80;58.40
76203;DHT22;64985;46.364;17.008;2023-06-14T08:50:48;23.70;63.30
76203;DHT22;64985;46.364;17.008;2023-06-14T08:53:55;25.20;61.20
76203;DHT22;64985;46.364;17.008;2023-06-14T08:57:00;26.20;56.90
76203;DHT22;64985;46.364;17.008;2023-06-14T09:00:03;26.80;55.20
76203;DHT22;64985;46.364;17.008;2023-06-14T09:03:16;26.80;56.10
76203;DHT22;64985;46.364;17.008;2023-06-14T09:06:19;26.80;52.90
76203;DHT22;64985;46.364;17.008;2023-06-14T09:09:24;27.00;52.30
76203;DHT22;64985;46.364;17.008;2023-06-14T09:12:27;26.80;50.80
76203;DHT22;64985;46.364;17.008;2023-06-14T09:15:30;26.50;53.80
76203;DHT22;64985;46.364;17.008;2023-06-14T09:18:38;27.10;54.60
76203;DHT22;64985;46.364;17.008;2023-06-14T09:21:41;27.40;54.00
76203;DHT22;64985;46.364;17.008;2023-06-14T09:24:43;26.80;53.30
76203;DHT22;64985;46.364;17.008;2023-06-14T09:27:47;25.70;53.20
76203;DHT22;64985;46.364;17.008;2023-06-14T09:30:49;24.80;54.60
76203;DHT22;64985;46.364;17.008;2023-06-14T09:33:51;24.70;52.50
76203;DHT22;64985;46.364;17.008;2023-06-14T09:36:54;24.90;48.50
76203;DHT22;64985;46.364;17.008;2023-06-14T09:39:57;25.10;54.80
76203;DHT22;64985;46.364;17.008;2023-06-14T09:42:59;25.40;54.80
76203;DHT22;64985;46.364;17.008;2023-06-14T09:46:03;25.50;52.60
76203;DHT22;64985;46.364;17.008;2023-06-14T09:49:05;26.00;51.10
76203;DHT22;64985;46.364;17.008;2023-06-14T09:52:16;26.90;55.40
76203;DHT22;64985;46.364;17.008;2023-06-14T09:55:19;26.90;47.50
76203;DHT22;64985;46.364;17.008;2023-06-14T09:58:23;27.00;47.70
76203;DHT22;64985;46.364;17.008;2023-06-14T10:01:30;26.70;48.00
76203;DHT22;64985;46.364;17.008;2023-06-14T10:04:34;26.90;48.30
76203;DHT22;64985;46.364;17.008;2023-06-14T10:10:42;26.50;46.60
76203;DHT22;64985;46.364;17.008;2023-06-14T10:13:45;26.10;48.40
76203;DHT22;64985;46.364;17.008;2023-06-14T10:17:06;26.30;47.50
76203;DHT22;64985;46.364;17.008;2023-06-14T10:20:39;26.90;47.20
76203;DHT22;64985;46.364;17.008;2023-06-14T10:23:45;27.50;43.80
76203;DHT22;64985;46.364;17.008;2023-06-14T10:26:53;27.00;40.80
76203;DHT22;64985;46.364;17.008;2023-06-14T10:33:08;26.70;43.20
76203;DHT22;64985;46.364;17.008;2023-06-14T10:36:28;27.10;44.80
76203;DHT22;64985;46.364;17.008;2023-06-14T10:39:43;27.60;42.80
76203;DHT22;64985;46.364;17.008;2023-06-14T10:42:51;27.80;39.50
76203;DHT22;64985;46.364;17.008;2023-06-14T10:46:19;28.10;45.90
76203;DHT22;64985;46.364;17.008;2023-06-14T10:49:39;27.80;45.00
76203;DHT22;64985;46.364;17.008;2023-06-14T10:52:45;27.10;42.20
76203;DHT22;64985;46.364;17.008;2023-06-14T10:55:49;26.80;40.30
76203;DHT22;64985;46.364;17.008;2023-06-14T10:58:51;27.00;41.60
76203;DHT22;64985;46.364;17.008;2023-06-14T11:05:15;27.70;41.00
76203;DHT22;64985;46.364;17.008;2023-06-14T11:11:51;30.50;40.80
76203;DHT22;64985;46.364;17.008;2023-06-14T11:14:55;29.90;39.30
76203;DHT22;64985;46.364;17.008;2023-06-14T11:18:00;29.80;43.30
76203;DHT22;64985;46.364;17.008;2023-06-14T11:21:03;30.20;42.50
76203;DHT22;64985;46.364;17.008;2023-06-14T11:24:10;31.00;40.60
76203;DHT22;64985;46.364;17.008;2023-06-14T11:27:13;30.70;41.50
76203;DHT22;64985;46.364;17.008;2023-06-14T11:30:16;30.70;39.90
76203;DHT22;64985;46.364;17.008;2023-06-14T11:33:18;29.80;40.30
76203;DHT22;64985;46.364;17.008;2023-06-14T11:36:20;28.40;42.30
76203;DHT22;64985;46.364;17.008;2023-06-14T11:39:25;27.90;47.70
76203;DHT22;64985;46.364;17.008;2023-06-14T11:42:29;28.40;47.70
76203;DHT22;64985;46.364;17.008;2023-06-14T11:45:32;28.20;42.20
76203;DHT22;64985;46.364;17.008;2023-06-14T11:48:38;27.70;43.90
76203;DHT22;64985;46.364;17.008;2023-06-14T11:51:43;27.00;45.90
76203;DHT22;64985;46.364;17.008;2023-06-14T11:54:47;27.60;46.40
76203;DHT22;64985;46.364;17.008;2023-06-14T11:57:50;27.40;46.50
76203;DHT22;64985;46.364;17.008;2023-06-14T12:00:53;26.70;47.40
76203;DHT22;64985;46.364;17.008;2023-06-14T12:03:55;27.00;44.70
76203;DHT22;64985;46.364;17.008;2023-06-14T12:06:57;27.40;45.80
76203;DHT22;64985;46.364;17.008;2023-06-14T12:10:11;28.50;44.90
76203;DHT22;64985;46.364;17.008;2023-06-14T12:13:17;29.60;44.40
76203;DHT22;64985;46.364;17.008;2023-06-14T12:16:19;29.50;44.40
76203;DHT22;64985;46.364;17.008;2023-06-14T12:19:26;28.40;39.50
76203;DHT22;64985;46.364;17.008;2023-06-14T12:22:28;27.50;44.80
76203;DHT22;64985;46.364;17.008;2023-06-14T12:25:33;27.00;47.70
76203;DHT22;64985;46.364;17.008;2023-06-14T12:28:37;26.80;50.70
76203;DHT22;64985;46.364;17.008;2023-06-14T12:31:39;27.30;49.30
76203;DHT22;64985;46.364;17.008;2023-06-14T12:34:41;28.20;45.60
76203;DHT22;64985;46.364;17.008;2023-06-14T12:37:44;28.90;48.60
76203;DHT22;64985;46.364;17.008;2023-06-14T12:40:46;29.60;42.10
76203;DHT22;64985;46.364;17.008;2023-06-14T12:43:48;30.20;42.00
76203;DHT22;64985;46.364;17.008;2023-06-14T12:46:51;30.40;42.60
76203;DHT22;64985;46.364;17.008;2023-06-14T12:49:55;30.50;40.90
76203;DHT22;64985;46.364;17.008;2023-06-14T12:52:57;30.50;43.20
76203;DHT22;64985;46.364;17.008;2023-06-14T12:55:59;29.70;42.50
76203;DHT22;64985;46.364;17.008;2023-06-14T12:59:01;28.90;42.90
76203;DHT22;64985;46.364;17.008;2023-06-14T13:02:14;28.40;43.90
76203;DHT22;64985;46.364;17.008;2023-06-14T13:05:17;28.10;45.30
76203;DHT22;64985;46.364;17.008;2023-06-14T13:08:19;28.60;42.30
76203;DHT22;64985;46.364;17.008;2023-06-14T13:11:26;29.20;44.20
76203;DHT22;64985;46.364;17.008;2023-06-14T13:14:28;29.60;44.40
76203;DHT22;64985;46.364;17.008;2023-06-14T13:17:30;30.70;42.10
76203;DHT22;64985;46.364;17.008;2023-06-14T13:20:35;30.70;44.10
76203;DHT22;64985;46.364;17.008;2023-06-14T13:23:37;29.20;42.90
76203;DHT22;64985;46.364;17.008;2023-06-14T13:26:39;28.50;49.20
76203;DHT22;64985;46.364;17.008;2023-06-14T13:29:41;28.90;50.40
76203;DHT22;64985;46.364;17.008;2023-06-14T13:32:44;29.40;50.60
76203;DHT22;64985;46.364;17.008;2023-06-14T13:35:50;29.80;47.80
76203;DHT22;64985;46.364;17.008;2023-06-14T13:38:54;30.10;45.70
76203;DHT22;64985;46.364;17.008;2023-06-14T13:41:57;30.20;47.40
76203;DHT22;64985;46.364;17.008;2023-06-14T13:44:59;29.60;46.10
76203;DHT22;64985;46.364;17.008;2023-06-14T15:03:37;27.80;52.30
76203;DHT22;64985;46.364;17.008;2023-06-14T15:07:00;26.90;54.70
76203;DHT22;64985;46.364;17.008;2023-06-14T15:10:02;27.20;52.00
76203;DHT22;64985;46.364;17.008;2023-06-14T15:13:04;27.10;53.20
76203;DHT22;64985;46.364;17.008;2023-06-14T15:16:06;27.00;53.90
76203;DHT22;64985;46.364;17.008;2023-06-14T15:19:08;27.20;52.40
76203;DHT22;64985;46.364;17.008;2023-06-14T15:22:11;27.20;53.50
76203;DHT22;64985;46.364;17.008;2023-06-14T15:25:13;26.70;51.80
76203;DHT22;64985;46.364;17.008;2023-06-14T15:28:16;26.80;52.20
76203;DHT22;64985;46.364;17.008;2023-06-14T15:31:18;26.40;52.30
76203;DHT22;64985;46.364;17.008;2023-06-14T15:34:20;25.80;52.00
76203;DHT22;64985;46.364;17.008;2023-06-14T15:37:22;25.00;54.40
76203;DHT22;64985;46.364;17.008;2023-06-14T15:40:25;24.40;54.30
76203;DHT22;64985;46.364;17.008;2023-06-14T15:43:27;23.90;55.20
76203;DHT22;64985;46.364;17.008;2023-06-14T15:46:30;23.70;56.80
76203;DHT22;64985;46.364;17.008;2023-06-14T15:49:32;23.70;57.10
76203;DHT22;64985;46.364;17.008;2023-06-14T15:52:34;23.80;58.40
76203;DHT22;64985;46.364;17.008;2023-06-14T15:55:36;23.80;58.50
76203;DHT22;64985;46.364;17.008;2023-06-14T15:58:39;23.80;58.90
76203;DHT22;64985;46.364;17.008;2023-06-14T16:01:41;23.70;57.80
76203;DHT22;64985;46.364;17.008;2023-06-14T16:04:43;23.50;56.50
76203;DHT22;64985;46.364;17.008;2023-06-14T16:07:45;23.40;59.20
76203;DHT22;64985;46.364;17.008;2023-06-14T16:10:47;23.20;60.00
76203;DHT22;64985;46.364;17.008;2023-06-14T16:13:51;23.10;60.50
76203;DHT22;64985;46.364;17.008;2023-06-14T16:16:54;23.00;61.30
76203;DHT22;64985;46.364;17.008;2023-06-14T16:19:56;22.80;60.20
76203;DHT22;64985;46.364;17.008;2023-06-14T16:22:58;22.70;63.60
76203;DHT22;64985;46.364;17.008;2023-06-14T16:26:00;22.60;62.00
76203;DHT22;64985;46.364;17.008;2023-06-14T16:29:02;22.40;62.80
76203;DHT22;64985;46.364;17.008;2023-06-14T16:32:05;22.10;63.60
76203;DHT22;64985;46.364;17.008;2023-06-14T16:35:07;22.00;63.50
76203;DHT22;64985;46.364;17.008;2023-06-14T16:38:09;21.90;66.10
76203;DHT22;64985;46.364;17.008;2023-06-14T16:41:14;21.80;64.70
76203;DHT22;64985;46.364;17.008;2023-06-14T16:44:16;21.60;63.70
76203;DHT22;64985;46.364;17.008;2023-06-14T16:47:18;21.50;66.80
76203;DHT22;64985;46.364;17.008;2023-06-14T16:50:21;21.40;66.40
76203;DHT22;64985;46.364;17.008;2023-06-14T16:53:23;21.30;68.70
76203;DHT22;64985;46.364;17.008;2023-06-14T16:56:25;21.30;68.90
76203;DHT22;64985;46.364;17.008;2023-06-14T16:59:28;21.30;67.80
76203;DHT22;64985;46.364;17.008;2023-06-14T17:02:31;21.20;69.10
76203;DHT22;64985;46.364;17.008;2023-06-14T17:05:34;21.10;70.10
76203;DHT22;64985;46.364;17.008;2023-06-14T17:08:36;21.00;68.40
76203;DHT22;64985;46.364;17.008;2023-06-14T17:11:38;21.00;70.90
76203;DHT22;64985;46.364;17.008;2023-06-14T17:14:40;20.90;69.10
76203;DHT22;64985;46.364;17.008;2023-06-14T17:17:44;20.80;71.70
76203;DHT22;64985;46.364;17.008;2023-06-14T17:20:46;20.80;72.90
76203;DHT22;64985;46.364;17.008;2023-06-14T17:23:49;20.70;71.80
76203;DHT22;64985;46.364;17.008;2023-06-14T17:26:52;20.70;72.20
76203;DHT22;64985;46.364;17.008;2023-06-14T17:29:54;20.60;71.90
76203;DHT22;64985;46.364;17.008;2023-06-14T17:32:57;20.50;72.70
76203;DHT22;64985;46.364;17.008;2023-06-14T17:35:59;20.40;74.80
76203;DHT22;64985;46.364;17.008;2023-06-14T17:39:01;20.30;72.40
76203;DHT22;64985;46.364;17.008;2023-06-14T17:42:04;20.30;73.80
76203;DHT22;64985;46.364;17.008;2023-06-14T17:45:07;20.20;73.40
76203;DHT22;64985;46.364;17.008;2023-06-14T17:48:10;20.20;76.20
76203;DHT22;64985;46.364;17.008;2023-06-14T17:51:13;20.10;77.00
76203;DHT22;64985;46.364;17.008;2023-06-14T17:54:17;19.90;76.90
76203;DHT22;64985;46.364;17.008;2023-06-14T17:57:20;19.80;76.40
76203;DHT22;64985;46.364;17.008;2023-06-14T18:00:22;19.70;76.00
76203;DHT22;64985;46.364;17.008;2023-06-14T18:03:25;19.60;77.80
76203;DHT22;64985;46.364;17.008;2023-06-14T18:06:28;19.50;77.80
76203;DHT22;64985;46.364;17.008;2023-06-14T18:09:31;19.40;76.40
76203;DHT22;64985;46.364;17.008;2023-06-14T18:12:34;19.30;75.60
76203;DHT22;64985;46.364;17.008;2023-06-14T18:15:37;19.20;81.00
76203;DHT22;64985;46.364;17.008;2023-06-14T18:18:40;19.10;82.00
76203;DHT22;64985;46.364;17.008;2023-06-14T18:21:47;18.90;81.90
76203;DHT22;64985;46.364;17.008;2023-06-14T18:24:49;18.70;88.20
76203;DHT22;64985;46.364;17.008;2023-06-14T18:27:52;18.60;89.90
76203;DHT22;64985;46.364;17.008;2023-06-14T18:30:55;18.40;91.30
76203;DHT22;64985;46.364;17.008;2023-06-14T18:33:58;18.30;92.20
76203;DHT22;64985;46.364;17.008;2023-06-14T18:37:01;18.20;95.90
76203;DHT22;64985;46.364;17.008;2023-06-14T18:40:04;18.00;98.20
76203;DHT22;64985;46.364;17.008;2023-06-14T18:43:08;17.90;98.70
76203;DHT22;64985;46.364;17.008;2023-06-14T18:46:13;17.70;99.90
76203;DHT22;64985;46.364;17.008;2023-06-14T18:49:17;17.60;99.90
76203;DHT22;64985;46.364;17.008;2023-06-14T18:52:20;17.50;99.90
76203;DHT22;64985;46.364;17.008;2023-06-14T18:55:24;17.30;99.90
76203;DHT22;64985;46.364;17.008;2023-06-14T18:58:27;17.20;99.90
76203;DHT22;64985;46.364;17.008;2023-06-14T19:01:32;17.00;99.90
76203;DHT22;64985;46.364;17.008;2023-06-14T19:04:36;16.90;99.90
76203;DHT22;64985;46.364;17.008;2023-06-14T19:07:39;16.80;99.90
76203;DHT22;64985;46.364;17.008;2023-06-14T19:10:42;16.70;99.90
76203;DHT22;64985;46.364;17.008;2023-06-14T19:13:47;16.60;99.90
76203;DHT22;64985;46.364;17.008;2023-06-14T19:16:51;16.50;99.90
76203;DHT22;64985;46.364;17.008;2023-06-14T19:19:55;16.40;99.90
76203;DHT22;64985;46.364;17.008;2023-06-14T19:22:59;16.30;99.90
76203;DHT22;64985;46.364;17.008;2023-06-14T19:26:04;16.20;99.90
76203;DHT22;64985;46.364;17.008;2023-06-14T19:29:09;16.10;99.90
76203;DHT22;64985;46.364;17.008;2023-06-14T19:32:12;16.00;99.90
76203;DHT22;64985;46.364;17.008;2023-06-14T19:35:15;15.90;99.90
76203;DHT22;64985;46.364;17.008;2023-06-14T19:38:23;15.60;99.90
76203;DHT22;64985;46.364;17.008;2023-06-14T19:41:26;15.50;99.90
76203;DHT22;64985;46.364;17.008;2023-06-14T19:44:31;15.30;99.90
76203;DHT22;64985;46.364;17.008;2023-06-14T19:47:34;15.20;99.90
76203;DHT22;64985;46.364;17.008;2023-06-14T19:50:38;15.20;99.90
76203;DHT22;64985;46.364;17.008;2023-06-14T19:53:42;15.20;99.90
76203;DHT22;64985;46.364;17.008;2023-06-14T19:56:45;15.30;99.90
76203;DHT22;64985;46.364;17.008;2023-06-14T19:59:48;15.30;99.90
76203;DHT22;64985;46.364;17.008;2023-06-14T20:02:51;15.40;99.90
76203;DHT22;64985;46.364;17.008;2023-06-14T20:05:55;15.40;99.90
76203;DHT22;64985;46.364;17.008;2023-06-14T20:08:58;15.40;99.90
76203;DHT22;64985;46.364;17.008;2023-06-14T20:12:01;15.40;99.90
76203;DHT22;64985;46.364;17.008;2023-06-14T20:15:04;15.40;99.90
76203;DHT22;64985;46.364;17.008;2023-06-14T20:18:07;15.30;99.90
76203;DHT22;64985;46.364;17.008;2023-06-14T20:21:09;15.20;99.90
76203;DHT22;64985;46.364;17.008;2023-06-14T20:24:12;15.10;99.90
76203;DHT22;64985;46.364;17.008;2023-06-14T20:27:14;15.00;99.90
76203;DHT22;64985;46.364;17.008;2023-06-14T20:30:16;15.00;99.90
76203;DHT22;64985;46.364;17.008;2023-06-14T20:33:19;15.00;99.90
76203;DHT22;64985;46.364;17.008;2023-06-14T20:36:21;15.00;99.90